CYXR

Earlton (Timiskaming Regional) Airport

Earlton, Ontario, Canada
METAR CYXR 190703Z AUTO 23005KT 2SM BR CLR 12/10 A2997 RMK SLP152
Observed Flight Rules
Jul-19 @ 07:03 UTC (35 minutes ago) Instrument Flight Rules
Wind Visibility Clouds Conditions
230° at 5 knots 2 miles
  • Clear skies
  • Mist
Temperatures Readings
Current 12°C / 54°F
Dewpoint 10°C / 50°F
Humidity 88%
Altimeter 29.97" Hg
Pressure 1015.2 hPa
Elevation 243
METAR CYXR 190703Z AUTO 23005KT 2SM BR CLR 12/10 A2997 RMK SLP152
Observed Flight Rules
Jul-19 @ 07:03 UTC
(35 minutes ago)
IFR
Wind Visibility
230° at 5 knots 2 miles
Clouds
  • Clear skies
Conditions
  • Mist
Temperature Dewpoint
12°C / 54°F 10°C / 50°F
Humidity Altimeter Pressure
88% 29.97" Hg 1015.2 hPa